sensor_id;sensor_type;location;lat;lon;timestamp;temperature;humidity
54578;DHT22;40474;49.330;8.130;2022-08-11T00:00:21;23.00;44.20
54578;DHT22;40474;49.330;8.130;2022-08-11T00:02:57;22.90;41.80
54578;DHT22;40474;49.330;8.130;2022-08-11T00:05:29;22.90;42.20
54578;DHT22;40474;49.330;8.130;2022-08-11T00:07:56;22.90;42.60
54578;DHT22;40474;49.330;8.130;2022-08-11T00:10:24;22.90;41.60
54578;DHT22;40474;49.330;8.130;2022-08-11T00:12:52;22.90;43.50
54578;DHT22;40474;49.330;8.130;2022-08-11T00:15:19;22.90;42.10
54578;DHT22;40474;49.330;8.130;2022-08-11T00:17:46;22.90;41.90
54578;DHT22;40474;49.330;8.130;2022-08-11T00:20:13;22.90;43.00
54578;DHT22;40474;49.330;8.130;2022-08-11T00:22:43;22.70;42.90
54578;DHT22;40474;49.330;8.130;2022-08-11T00:25:12;22.60;43.20
54578;DHT22;40474;49.330;8.130;2022-08-11T00:27:39;22.50;43.20
54578;DHT22;40474;49.330;8.130;2022-08-11T00:30:07;22.40;43.20
54578;DHT22;40474;49.330;8.130;2022-08-11T00:32:35;22.40;43.80
54578;DHT22;40474;49.330;8.130;2022-08-11T00:35:03;22.30;44.20
54578;DHT22;40474;49.330;8.130;2022-08-11T00:37:52;22.20;44.00
54578;DHT22;40474;49.330;8.130;2022-08-11T00:40:24;22.20;43.90
54578;DHT22;40474;49.330;8.130;2022-08-11T00:42:57;22.20;44.10
54578;DHT22;40474;49.330;8.130;2022-08-11T00:45:45;22.10;44.10
54578;DHT22;40474;49.330;8.130;2022-08-11T00:48:27;22.10;44.10
54578;DHT22;40474;49.330;8.130;2022-08-11T00:59:05;21.90;45.60
54578;DHT22;40474;49.330;8.130;2022-08-11T01:09:58;21.60;46.00
54578;DHT22;40474;49.330;8.130;2022-08-11T01:15:48;21.50;46.10
54578;DHT22;40474;49.330;8.130;2022-08-11T01:18:47;21.50;46.20
54578;DHT22;40474;49.330;8.130;2022-08-11T01:40:12;21.10;47.70
54578;DHT22;40474;49.330;8.130;2022-08-11T01:45:34;21.10;47.70
54578;DHT22;40474;49.330;8.130;2022-08-11T01:48:04;21.10;47.50
54578;DHT22;40474;49.330;8.130;2022-08-11T01:50:53;21.00;48.00
54578;DHT22;40474;49.330;8.130;2022-08-11T01:56:00;20.90;48.80
54578;DHT22;40474;49.330;8.130;2022-08-11T01:58:32;20.80;47.90
54578;DHT22;40474;49.330;8.130;2022-08-11T02:01:12;20.80;47.70
54578;DHT22;40474;49.330;8.130;2022-08-11T02:03:48;20.70;49.50
54578;DHT22;40474;49.330;8.130;2022-08-11T02:06:28;20.70;49.20
54578;DHT22;40474;49.330;8.130;2022-08-11T02:09:37;20.60;47.90
54578;DHT22;40474;49.330;8.130;2022-08-11T02:15:02;20.60;49.00
54578;DHT22;40474;49.330;8.130;2022-08-11T02:20:09;20.60;48.70
54578;DHT22;40474;49.330;8.130;2022-08-11T02:23:02;20.60;48.90
54578;DHT22;40474;49.330;8.130;2022-08-11T02:26:09;20.60;48.70
54578;DHT22;40474;49.330;8.130;2022-08-11T02:31:17;20.50;49.50
54578;DHT22;40474;49.330;8.130;2022-08-11T02:34:28;20.50;48.40
54578;DHT22;40474;49.330;8.130;2022-08-11T02:37:00;20.50;49.70
54578;DHT22;40474;49.330;8.130;2022-08-11T02:39:30;20.50;50.10
54578;DHT22;40474;49.330;8.130;2022-08-11T02:50:48;20.30;50.90
54578;DHT22;40474;49.330;8.130;2022-08-11T02:53:19;20.30;50.90
54578;DHT22;40474;49.330;8.130;2022-08-11T02:55:58;20.30;49.30
54578;DHT22;40474;49.330;8.130;2022-08-11T03:01:38;20.30;51.00
54578;DHT22;40474;49.330;8.130;2022-08-11T03:04:07;20.20;50.60
54578;DHT22;40474;49.330;8.130;2022-08-11T03:06:56;20.20;51.30
54578;DHT22;40474;49.330;8.130;2022-08-11T03:12:03;20.30;51.30
54578;DHT22;40474;49.330;8.130;2022-08-11T03:17:40;20.30;50.80
54578;DHT22;40474;49.330;8.130;2022-08-11T03:20:20;20.30;51.00
54578;DHT22;40474;49.330;8.130;2022-08-11T03:22:56;20.30;51.60
54578;DHT22;40474;49.330;8.130;2022-08-11T03:25:29;20.20;51.50
54578;DHT22;40474;49.330;8.130;2022-08-11T03:28:03;20.20;51.50
54578;DHT22;40474;49.330;8.130;2022-08-11T03:30:47;20.20;51.60
54578;DHT22;40474;49.330;8.130;2022-08-11T03:36:22;20.10;52.20
54578;DHT22;40474;49.330;8.130;2022-08-11T03:39:00;20.10;52.80
54578;DHT22;40474;49.330;8.130;2022-08-11T03:41:41;20.00;52.50
54578;DHT22;40474;49.330;8.130;2022-08-11T03:49:56;20.10;51.70
54578;DHT22;40474;49.330;8.130;2022-08-11T04:00:38;20.00;51.70
54578;DHT22;40474;49.330;8.130;2022-08-11T04:03:36;20.00;52.80
54578;DHT22;40474;49.330;8.130;2022-08-11T04:06:16;19.90;52.00
54578;DHT22;40474;49.330;8.130;2022-08-11T04:11:19;19.90;52.70
54578;DHT22;40474;49.330;8.130;2022-08-11T04:17:03;19.80;53.20
54578;DHT22;40474;49.330;8.130;2022-08-11T04:19:48;19.80;52.20
54578;DHT22;40474;49.330;8.130;2022-08-11T04:27:19;19.70;54.80
54578;DHT22;40474;49.330;8.130;2022-08-11T04:30:07;19.70;53.70
54578;DHT22;40474;49.330;8.130;2022-08-11T04:38:11;19.70;54.00
54578;DHT22;40474;49.330;8.130;2022-08-11T04:40:48;19.70;54.40
54578;DHT22;40474;49.330;8.130;2022-08-11T04:45:51;19.70;54.80
54578;DHT22;40474;49.330;8.130;2022-08-11T04:48:44;19.70;55.90
54578;DHT22;40474;49.330;8.130;2022-08-11T04:57:08;19.90;55.20
54578;DHT22;40474;49.330;8.130;2022-08-11T05:00:06;20.00;54.90
54578;DHT22;40474;49.330;8.130;2022-08-11T05:03:02;20.00;54.50
54578;DHT22;40474;49.330;8.130;2022-08-11T05:11:16;20.40;54.70
54578;DHT22;40474;49.330;8.130;2022-08-11T05:13:48;20.50;54.20
54578;DHT22;40474;49.330;8.130;2022-08-11T05:16:41;20.70;53.80
54578;DHT22;40474;49.330;8.130;2022-08-11T05:19:30;20.80;53.00
54578;DHT22;40474;49.330;8.130;2022-08-11T05:22:16;20.90;53.20
54578;DHT22;40474;49.330;8.130;2022-08-11T05:25:05;21.10;53.80
54578;DHT22;40474;49.330;8.130;2022-08-11T05:28:12;21.20;52.60
54578;DHT22;40474;49.330;8.130;2022-08-11T05:31:02;21.40;52.40
54578;DHT22;40474;49.330;8.130;2022-08-11T05:33:51;21.70;52.70
54578;DHT22;40474;49.330;8.130;2022-08-11T05:36:43;22.50;51.60
54578;DHT22;40474;49.330;8.130;2022-08-11T05:39:46;23.60;47.70
54578;DHT22;40474;49.330;8.130;2022-08-11T05:42:23;24.70;44.90
54578;DHT22;40474;49.330;8.130;2022-08-11T05:45:13;25.70;41.40
54578;DHT22;40474;49.330;8.130;2022-08-11T05:48:19;26.50;41.30
54578;DHT22;40474;49.330;8.130;2022-08-11T05:51:04;27.40;39.50
54578;DHT22;40474;49.330;8.130;2022-08-11T05:53:57;27.90;38.30
54578;DHT22;40474;49.330;8.130;2022-08-11T05:56:58;28.60;37.40
54578;DHT22;40474;49.330;8.130;2022-08-11T05:59:25;29.20;35.80
54578;DHT22;40474;49.330;8.130;2022-08-11T06:01:59;29.40;35.60
54578;DHT22;40474;49.330;8.130;2022-08-11T06:04:26;29.80;36.20
54578;DHT22;40474;49.330;8.130;2022-08-11T06:06:58;30.50;35.90
54578;DHT22;40474;49.330;8.130;2022-08-11T06:09:30;30.80;34.80
54578;DHT22;40474;49.330;8.130;2022-08-11T06:12:05;30.80;33.60
54578;DHT22;40474;49.330;8.130;2022-08-11T06:14:34;30.80;33.90
54578;DHT22;40474;49.330;8.130;2022-08-11T06:17:06;31.20;33.20
54578;DHT22;40474;49.330;8.130;2022-08-11T06:19:45;31.30;32.70
54578;DHT22;40474;49.330;8.130;2022-08-11T06:22:12;31.50;33.40
54578;DHT22;40474;49.330;8.130;2022-08-11T06:24:50;31.70;32.70
54578;DHT22;40474;49.330;8.130;2022-08-11T06:27:20;32.00;32.40
54578;DHT22;40474;49.330;8.130;2022-08-11T06:29:50;32.60;31.60
54578;DHT22;40474;49.330;8.130;2022-08-11T06:32:25;32.50;31.40
54578;DHT22;40474;49.330;8.130;2022-08-11T06:37:55;33.00;31.10
54578;DHT22;40474;49.330;8.130;2022-08-11T06:40:21;33.00;30.70
54578;DHT22;40474;49.330;8.130;2022-08-11T06:42:56;33.30;31.10
54578;DHT22;40474;49.330;8.130;2022-08-11T06:48:16;33.80;30.90
54578;DHT22;40474;49.330;8.130;2022-08-11T06:50:48;34.10;30.20
54578;DHT22;40474;49.330;8.130;2022-08-11T06:53:33;33.60;30.10
54578;DHT22;40474;49.330;8.130;2022-08-11T06:56:01;33.80;30.40
54578;DHT22;40474;49.330;8.130;2022-08-11T06:58:46;34.30;30.80
54578;DHT22;40474;49.330;8.130;2022-08-11T07:01:39;34.50;30.00
54578;DHT22;40474;49.330;8.130;2022-08-11T07:04:19;35.10;29.90
54578;DHT22;40474;49.330;8.130;2022-08-11T07:07:05;35.10;29.20
54578;DHT22;40474;49.330;8.130;2022-08-11T07:10:09;35.00;29.40
54578;DHT22;40474;49.330;8.130;2022-08-11T07:13:00;35.00;29.50
54578;DHT22;40474;49.330;8.130;2022-08-11T07:16:07;35.20;29.60
54578;DHT22;40474;49.330;8.130;2022-08-11T07:18:39;35.80;29.20
54578;DHT22;40474;49.330;8.130;2022-08-11T07:21:28;35.70;28.90
54578;DHT22;40474;49.330;8.130;2022-08-11T07:24:39;35.80;29.40
54578;DHT22;40474;49.330;8.130;2022-08-11T07:27:34;35.90;28.80
54578;DHT22;40474;49.330;8.130;2022-08-11T07:30:21;35.60;29.10
54578;DHT22;40474;49.330;8.130;2022-08-11T07:32:50;34.70;29.90
54578;DHT22;40474;49.330;8.130;2022-08-11T07:35:23;33.70;30.80
54578;DHT22;40474;49.330;8.130;2022-08-11T07:37:54;33.30;31.60
54578;DHT22;40474;49.330;8.130;2022-08-11T07:40:28;33.90;31.00
54578;DHT22;40474;49.330;8.130;2022-08-11T07:42:55;34.40;30.00
54578;DHT22;40474;49.330;8.130;2022-08-11T07:45:23;34.50;31.40
54578;DHT22;40474;49.330;8.130;2022-08-11T07:48:08;35.10;29.90
54578;DHT22;40474;49.330;8.130;2022-08-11T07:50:54;35.40;29.10
54578;DHT22;40474;49.330;8.130;2022-08-11T07:53:40;36.20;28.50
54578;DHT22;40474;49.330;8.130;2022-08-11T07:56:27;36.60;29.10
54578;DHT22;40474;49.330;8.130;2022-08-11T07:59:14;37.50;28.10
54578;DHT22;40474;49.330;8.130;2022-08-11T08:02:21;36.80;27.80
54578;DHT22;40474;49.330;8.130;2022-08-11T08:05:06;37.10;28.40
54578;DHT22;40474;49.330;8.130;2022-08-11T08:07:52;38.10;28.40
54578;DHT22;40474;49.330;8.130;2022-08-11T08:10:37;38.10;27.40
54578;DHT22;40474;49.330;8.130;2022-08-11T08:13:22;37.70;27.70
54578;DHT22;40474;49.330;8.130;2022-08-11T08:16:08;38.00;27.70
54578;DHT22;40474;49.330;8.130;2022-08-11T08:18:55;38.40;27.60
54578;DHT22;40474;49.330;8.130;2022-08-11T08:21:21;39.40;27.50
54578;DHT22;40474;49.330;8.130;2022-08-11T08:23:48;39.30;27.00
54578;DHT22;40474;49.330;8.130;2022-08-11T08:26:21;38.50;28.00
54578;DHT22;40474;49.330;8.130;2022-08-11T08:29:13;39.10;26.90
54578;DHT22;40474;49.330;8.130;2022-08-11T08:31:58;39.50;26.50
54578;DHT22;40474;49.330;8.130;2022-08-11T08:34:27;39.70;27.50
54578;DHT22;40474;49.330;8.130;2022-08-11T08:36:57;40.70;26.90
54578;DHT22;40474;49.330;8.130;2022-08-11T08:39:25;41.30;26.20
54578;DHT22;40474;49.330;8.130;2022-08-11T08:41:53;41.80;26.00
54578;DHT22;40474;49.330;8.130;2022-08-11T08:44:20;41.80;26.00
54578;DHT22;40474;49.330;8.130;2022-08-11T08:47:08;42.20;26.30
54578;DHT22;40474;49.330;8.130;2022-08-11T08:49:38;41.90;26.60
54578;DHT22;40474;49.330;8.130;2022-08-11T08:52:11;41.80;26.20
54578;DHT22;40474;49.330;8.130;2022-08-11T08:55:00;41.80;26.80
54578;DHT22;40474;49.330;8.130;2022-08-11T08:57:27;41.80;25.70
54578;DHT22;40474;49.330;8.130;2022-08-11T09:00:05;41.80;26.00
54578;DHT22;40474;49.330;8.130;2022-08-11T09:02:34;42.20;25.40
54578;DHT22;40474;49.330;8.130;2022-08-11T09:05:05;41.40;25.80
54578;DHT22;40474;49.330;8.130;2022-08-11T09:07:34;41.60;26.20
54578;DHT22;40474;49.330;8.130;2022-08-11T09:10:05;41.80;25.80
54578;DHT22;40474;49.330;8.130;2022-08-11T09:12:34;41.70;26.10
54578;DHT22;40474;49.330;8.130;2022-08-11T09:15:05;41.40;25.70
54578;DHT22;40474;49.330;8.130;2022-08-11T09:17:35;40.70;26.30
54578;DHT22;40474;49.330;8.130;2022-08-11T09:20:06;41.20;26.20
54578;DHT22;40474;49.330;8.130;2022-08-11T09:22:37;41.30;26.30
54578;DHT22;40474;49.330;8.130;2022-08-11T09:26:00;41.50;26.20
54578;DHT22;40474;49.330;8.130;2022-08-11T09:28:46;42.10;26.00
54578;DHT22;40474;49.330;8.130;2022-08-11T09:31:15;42.70;25.70
54578;DHT22;40474;49.330;8.130;2022-08-11T09:33:42;42.40;25.40
54578;DHT22;40474;49.330;8.130;2022-08-11T09:36:11;42.30;25.20
54578;DHT22;40474;49.330;8.130;2022-08-11T09:38:56;42.00;25.40
54578;DHT22;40474;49.330;8.130;2022-08-11T09:41:42;41.70;25.60
54578;DHT22;40474;49.330;8.130;2022-08-11T09:44:27;41.90;25.60
54578;DHT22;40474;49.330;8.130;2022-08-11T09:49:45;40.60;26.30
54578;DHT22;40474;49.330;8.130;2022-08-11T09:52:14;41.00;26.20
54578;DHT22;40474;49.330;8.130;2022-08-11T09:54:41;41.40;26.40
54578;DHT22;40474;49.330;8.130;2022-08-11T09:57:13;40.90;25.30
54578;DHT22;40474;49.330;8.130;2022-08-11T09:59:58;40.80;26.30
54578;DHT22;40474;49.330;8.130;2022-08-11T10:02:42;41.00;25.90
54578;DHT22;40474;49.330;8.130;2022-08-11T10:05:10;41.60;26.20
54578;DHT22;40474;49.330;8.130;2022-08-11T10:07:59;42.20;25.50
54578;DHT22;40474;49.330;8.130;2022-08-11T10:10:26;42.00;25.30
54578;DHT22;40474;49.330;8.130;2022-08-11T10:12:58;41.60;25.40
54578;DHT22;40474;49.330;8.130;2022-08-11T10:15:25;41.70;26.00
54578;DHT22;40474;49.330;8.130;2022-08-11T10:18:36;41.40;25.30
54578;DHT22;40474;49.330;8.130;2022-08-11T10:23:44;41.90;25.20
54578;DHT22;40474;49.330;8.130;2022-08-11T10:26:31;42.50;24.90
54578;DHT22;40474;49.330;8.130;2022-08-11T10:29:37;42.80;25.50
54578;DHT22;40474;49.330;8.130;2022-08-11T10:32:25;43.00;24.40
54578;DHT22;40474;49.330;8.130;2022-08-11T10:35:26;43.30;24.50
54578;DHT22;40474;49.330;8.130;2022-08-11T10:37:53;42.90;24.20
54578;DHT22;40474;49.330;8.130;2022-08-11T10:40:34;42.50;24.10
54578;DHT22;40474;49.330;8.130;2022-08-11T10:43:01;42.70;24.90
54578;DHT22;40474;49.330;8.130;2022-08-11T10:45:29;42.00;24.50
54578;DHT22;40474;49.330;8.130;2022-08-11T10:48:14;42.10;24.50
54578;DHT22;40474;49.330;8.130;2022-08-11T10:50:44;42.00;24.40
54578;DHT22;40474;49.330;8.130;2022-08-11T10:53:29;42.10;24.80
54578;DHT22;40474;49.330;8.130;2022-08-11T10:56:16;42.60;24.00
54578;DHT22;40474;49.330;8.130;2022-08-11T10:59:01;42.60;23.90
54578;DHT22;40474;49.330;8.130;2022-08-11T11:01:34;42.80;23.60
54578;DHT22;40474;49.330;8.130;2022-08-11T11:04:06;43.10;24.00
54578;DHT22;40474;49.330;8.130;2022-08-11T11:06:39;43.40;23.90
54578;DHT22;40474;49.330;8.130;2022-08-11T11:09:15;42.90;23.70
54578;DHT22;40474;49.330;8.130;2022-08-11T11:11:44;42.60;24.10
54578;DHT22;40474;49.330;8.130;2022-08-11T11:14:31;42.40;23.40
54578;DHT22;40474;49.330;8.130;2022-08-11T11:17:31;42.40;23.90
54578;DHT22;40474;49.330;8.130;2022-08-11T11:20:28;41.90;23.30
54578;DHT22;40474;49.330;8.130;2022-08-11T11:23:15;42.20;24.00
54578;DHT22;40474;49.330;8.130;2022-08-11T11:25:49;42.30;23.40
54578;DHT22;40474;49.330;8.130;2022-08-11T11:29:10;42.90;23.80
54578;DHT22;40474;49.330;8.130;2022-08-11T11:31:43;43.40;23.50
54578;DHT22;40474;49.330;8.130;2022-08-11T11:36:57;43.70;23.40
54578;DHT22;40474;49.330;8.130;2022-08-11T11:39:26;42.90;23.10
54578;DHT22;40474;49.330;8.130;2022-08-11T11:41:55;42.90;23.90
54578;DHT22;40474;49.330;8.130;2022-08-11T11:44:22;42.60;23.20
54578;DHT22;40474;49.330;8.130;2022-08-11T11:46:49;42.50;23.70
54578;DHT22;40474;49.330;8.130;2022-08-11T11:49:17;42.30;23.40
54578;DHT22;40474;49.330;8.130;2022-08-11T11:51:49;41.70;23.40
54578;DHT22;40474;49.330;8.130;2022-08-11T11:54:20;41.80;24.30
54578;DHT22;40474;49.330;8.130;2022-08-11T11:56:47;41.80;23.30
54578;DHT22;40474;49.330;8.130;2022-08-11T11:59:19;41.80;23.40
54578;DHT22;40474;49.330;8.130;2022-08-11T12:02:07;42.40;26.00
54578;DHT22;40474;49.330;8.130;2022-08-11T12:04:41;42.40;23.90
54578;DHT22;40474;49.330;8.130;2022-08-11T12:07:09;42.30;23.20
54578;DHT22;40474;49.330;8.130;2022-08-11T12:09:55;41.70;23.70
54578;DHT22;40474;49.330;8.130;2022-08-11T12:12:22;41.60;23.70
54578;DHT22;40474;49.330;8.130;2022-08-11T12:15:08;41.80;24.00
54578;DHT22;40474;49.330;8.130;2022-08-11T12:17:35;42.20;23.50
54578;DHT22;40474;49.330;8.130;2022-08-11T12:20:03;42.00;23.60
54578;DHT22;40474;49.330;8.130;2022-08-11T12:22:50;42.40;23.40
54578;DHT22;40474;49.330;8.130;2022-08-11T12:25:40;42.60;24.10
54578;DHT22;40474;49.330;8.130;2022-08-11T12:28:46;42.00;24.60
54578;DHT22;40474;49.330;8.130;2022-08-11T12:31:13;41.90;23.70
54578;DHT22;40474;49.330;8.130;2022-08-11T12:33:40;42.00;24.20
54578;DHT22;40474;49.330;8.130;2022-08-11T12:36:07;41.80;23.80
54578;DHT22;40474;49.330;8.130;2022-08-11T12:38:34;41.60;23.50
54578;DHT22;40474;49.330;8.130;2022-08-11T12:41:02;41.80;23.60
54578;DHT22;40474;49.330;8.130;2022-08-11T12:43:48;41.80;23.80
54578;DHT22;40474;49.330;8.130;2022-08-11T12:46:34;41.10;24.00
54578;DHT22;40474;49.330;8.130;2022-08-11T12:49:11;40.90;24.10
54578;DHT22;40474;49.330;8.130;2022-08-11T12:51:57;41.30;24.10
54578;DHT22;40474;49.330;8.130;2022-08-11T12:57:14;41.40;23.80
54578;DHT22;40474;49.330;8.130;2022-08-11T13:00:06;41.70;24.40
54578;DHT22;40474;49.330;8.130;2022-08-11T13:02:52;41.60;23.80
54578;DHT22;40474;49.330;8.130;2022-08-11T13:05:38;41.00;24.80
54578;DHT22;40474;49.330;8.130;2022-08-11T13:08:11;41.30;24.60
54578;DHT22;40474;49.330;8.130;2022-08-11T13:10:39;41.20;23.50
54578;DHT22;40474;49.330;8.130;2022-08-11T13:13:24;40.60;23.90
54578;DHT22;40474;49.330;8.130;2022-08-11T13:16:11;40.40;26.10
54578;DHT22;40474;49.330;8.130;2022-08-11T13:18:40;40.50;24.10
54578;DHT22;40474;49.330;8.130;2022-08-11T13:21:11;40.10;26.00
54578;DHT22;40474;49.330;8.130;2022-08-11T13:23:50;40.10;25.10
54578;DHT22;40474;49.330;8.130;2022-08-11T13:26:35;40.00;24.10
54578;DHT22;40474;49.330;8.130;2022-08-11T13:29:22;40.40;24.20
54578;DHT22;40474;49.330;8.130;2022-08-11T13:31:49;40.40;24.60
54578;DHT22;40474;49.330;8.130;2022-08-11T13:34:17;39.90;24.10
54578;DHT22;40474;49.330;8.130;2022-08-11T13:36:46;39.80;24.20
54578;DHT22;40474;49.330;8.130;2022-08-11T13:39:14;39.80;24.20
54578;DHT22;40474;49.330;8.130;2022-08-11T13:41:41;39.30;24.40
54578;DHT22;40474;49.330;8.130;2022-08-11T13:44:10;39.10;24.60
54578;DHT22;40474;49.330;8.130;2022-08-11T13:46:44;39.20;24.40
54578;DHT22;40474;49.330;8.130;2022-08-11T13:49:15;39.10;24.50
54578;DHT22;40474;49.330;8.130;2022-08-11T13:51:42;38.80;27.10
54578;DHT22;40474;49.330;8.130;2022-08-11T13:54:16;38.90;25.20
54578;DHT22;40474;49.330;8.130;2022-08-11T13:56:45;38.60;24.80
54578;DHT22;40474;49.330;8.130;2022-08-11T13:59:13;38.20;24.80
54578;DHT22;40474;49.330;8.130;2022-08-11T14:01:41;37.80;25.30
54578;DHT22;40474;49.330;8.130;2022-08-11T14:04:30;37.40;24.80
54578;DHT22;40474;49.330;8.130;2022-08-11T14:06:59;37.30;25.70
54578;DHT22;40474;49.330;8.130;2022-08-11T14:09:29;36.60;26.00
54578;DHT22;40474;49.330;8.130;2022-08-11T14:11:59;36.10;25.70
54578;DHT22;40474;49.330;8.130;2022-08-11T14:14:58;35.50;25.50
54578;DHT22;40474;49.330;8.130;2022-08-11T14:17:33;35.20;26.20
54578;DHT22;40474;49.330;8.130;2022-08-11T14:20:14;35.00;26.20
54578;DHT22;40474;49.330;8.130;2022-08-11T14:23:01;34.80;26.60
54578;DHT22;40474;49.330;8.130;2022-08-11T14:25:28;34.60;27.00
54578;DHT22;40474;49.330;8.130;2022-08-11T14:28:15;34.60;26.70
54578;DHT22;40474;49.330;8.130;2022-08-11T14:31:01;34.20;27.10
54578;DHT22;40474;49.330;8.130;2022-08-11T14:33:29;34.10;27.30
54578;DHT22;40474;49.330;8.130;2022-08-11T14:36:17;33.90;27.70
54578;DHT22;40474;49.330;8.130;2022-08-11T14:38:45;33.70;27.20
54578;DHT22;40474;49.330;8.130;2022-08-11T14:41:13;33.60;27.50
54578;DHT22;40474;49.330;8.130;2022-08-11T14:43:58;33.50;27.30
54578;DHT22;40474;49.330;8.130;2022-08-11T14:46:44;33.30;27.10
54578;DHT22;40474;49.330;8.130;2022-08-11T14:49:29;33.10;27.60
54578;DHT22;40474;49.330;8.130;2022-08-11T14:51:56;33.00;27.80
54578;DHT22;40474;49.330;8.130;2022-08-11T14:54:24;33.00;28.10
54578;DHT22;40474;49.330;8.130;2022-08-11T14:57:09;33.00;27.80
54578;DHT22;40474;49.330;8.130;2022-08-11T14:59:36;32.70;27.60
54578;DHT22;40474;49.330;8.130;2022-08-11T15:02:04;32.60;27.70
54578;DHT22;40474;49.330;8.130;2022-08-11T15:04:49;32.50;28.10
54578;DHT22;40474;49.330;8.130;2022-08-11T15:07:16;32.50;28.20
54578;DHT22;40474;49.330;8.130;2022-08-11T15:09:43;32.50;28.10
54578;DHT22;40474;49.330;8.130;2022-08-11T15:12:30;32.40;27.90
54578;DHT22;40474;49.330;8.130;2022-08-11T15:15:02;32.40;27.70
54578;DHT22;40474;49.330;8.130;2022-08-11T15:17:50;32.30;28.00
54578;DHT22;40474;49.330;8.130;2022-08-11T15:20:19;32.20;28.00
54578;DHT22;40474;49.330;8.130;2022-08-11T15:23:05;32.10;27.90
54578;DHT22;40474;49.330;8.130;2022-08-11T15:28:36;31.90;28.20
54578;DHT22;40474;49.330;8.130;2022-08-11T15:31:24;31.90;28.80
54578;DHT22;40474;49.330;8.130;2022-08-11T15:33:56;31.90;28.80
54578;DHT22;40474;49.330;8.130;2022-08-11T15:36:44;31.80;28.30
54578;DHT22;40474;49.330;8.130;2022-08-11T15:39:40;31.70;28.30
54578;DHT22;40474;49.330;8.130;2022-08-11T15:42:30;31.70;28.50
54578;DHT22;40474;49.330;8.130;2022-08-11T15:45:16;31.60;28.40
54578;DHT22;40474;49.330;8.130;2022-08-11T15:48:08;31.60;28.70
54578;DHT22;40474;49.330;8.130;2022-08-11T15:50:39;31.50;28.50
54578;DHT22;40474;49.330;8.130;2022-08-11T15:53:08;31.50;29.80
54578;DHT22;40474;49.330;8.130;2022-08-11T15:55:35;31.40;28.90
54578;DHT22;40474;49.330;8.130;2022-08-11T15:58:03;31.40;28.90
54578;DHT22;40474;49.330;8.130;2022-08-11T16:00:51;31.30;29.10
54578;DHT22;40474;49.330;8.130;2022-08-11T16:03:42;31.30;29.30
54578;DHT22;40474;49.330;8.130;2022-08-11T16:07:18;31.30;30.00
54578;DHT22;40474;49.330;8.130;2022-08-11T16:12:06;31.20;28.80
54578;DHT22;40474;49.330;8.130;2022-08-11T16:14:35;31.10;28.90
54578;DHT22;40474;49.330;8.130;2022-08-11T16:17:22;31.10;29.00
54578;DHT22;40474;49.330;8.130;2022-08-11T16:19:50;31.10;29.20
54578;DHT22;40474;49.330;8.130;2022-08-11T16:22:26;31.00;29.00
54578;DHT22;40474;49.330;8.130;2022-08-11T16:25:00;31.00;29.10
54578;DHT22;40474;49.330;8.130;2022-08-11T16:27:55;30.90;30.60
54578;DHT22;40474;49.330;8.130;2022-08-11T16:30:26;30.90;29.20
54578;DHT22;40474;49.330;8.130;2022-08-11T16:32:53;30.90;31.10
54578;DHT22;40474;49.330;8.130;2022-08-11T16:35:22;30.80;30.00
54578;DHT22;40474;49.330;8.130;2022-08-11T16:38:09;30.90;30.80
54578;DHT22;40474;49.330;8.130;2022-08-11T16:40:55;30.90;29.80
54578;DHT22;40474;49.330;8.130;2022-08-11T16:43:24;30.70;29.50
54578;DHT22;40474;49.330;8.130;2022-08-11T16:46:11;30.90;29.90
54578;DHT22;40474;49.330;8.130;2022-08-11T16:48:57;30.70;29.20
54578;DHT22;40474;49.330;8.130;2022-08-11T16:51:25;30.70;30.00
54578;DHT22;40474;49.330;8.130;2022-08-11T16:53:52;30.70;36.20
54578;DHT22;40474;49.330;8.130;2022-08-11T16:56:36;30.70;35.40
54578;DHT22;40474;49.330;8.130;2022-08-11T16:59:08;30.50;35.20
54578;DHT22;40474;49.330;8.130;2022-08-11T17:01:45;30.30;30.00
54578;DHT22;40474;49.330;8.130;2022-08-11T17:04:18;30.40;42.10
54578;DHT22;40474;49.330;8.130;2022-08-11T17:07:12;30.30;55.50
54578;DHT22;40474;49.330;8.130;2022-08-11T17:10:10;30.10;30.00
54578;DHT22;40474;49.330;8.130;2022-08-11T17:13:16;30.00;29.70
54578;DHT22;40474;49.330;8.130;2022-08-11T17:15:46;29.90;30.00
54578;DHT22;40474;49.330;8.130;2022-08-11T17:23:39;29.60;34.30
54578;DHT22;40474;49.330;8.130;2022-08-11T17:26:14;29.50;35.50
54578;DHT22;40474;49.330;8.130;2022-08-11T17:28:41;29.50;37.50
54578;DHT22;40474;49.330;8.130;2022-08-11T17:31:08;29.40;33.90
54578;DHT22;40474;49.330;8.130;2022-08-11T17:33:55;29.30;33.70
54578;DHT22;40474;49.330;8.130;2022-08-11T17:36:41;29.40;32.80
54578;DHT22;40474;49.330;8.130;2022-08-11T17:39:11;29.40;42.30
54578;DHT22;40474;49.330;8.130;2022-08-11T17:41:38;29.00;34.10
54578;DHT22;40474;49.330;8.130;2022-08-11T17:44:24;28.90;33.90
54578;DHT22;40474;49.330;8.130;2022-08-11T17:47:10;28.80;38.30
54578;DHT22;40474;49.330;8.130;2022-08-11T17:49:56;28.60;38.10
54578;DHT22;40474;49.330;8.130;2022-08-11T17:52:44;28.50;36.40
54578;DHT22;40474;49.330;8.130;2022-08-11T17:55:30;28.40;39.20
54578;DHT22;40474;49.330;8.130;2022-08-11T18:01:04;28.00;35.70
54578;DHT22;40474;49.330;8.130;2022-08-11T18:03:35;27.90;36.50
54578;DHT22;40474;49.330;8.130;2022-08-11T18:06:06;27.80;38.70
54578;DHT22;40474;49.330;8.130;2022-08-11T18:08:45;27.70;38.20
54578;DHT22;40474;49.330;8.130;2022-08-11T18:11:31;27.50;38.00
54578;DHT22;40474;49.330;8.130;2022-08-11T18:14:37;27.40;39.00
54578;DHT22;40474;49.330;8.130;2022-08-11T18:17:23;27.30;39.20
54578;DHT22;40474;49.330;8.130;2022-08-11T18:20:08;27.20;38.40
54578;DHT22;40474;49.330;8.130;2022-08-11T18:22:53;27.00;37.10
54578;DHT22;40474;49.330;8.130;2022-08-11T18:25:40;26.90;36.90
54578;DHT22;40474;49.330;8.130;2022-08-11T18:28:27;26.80;38.20
54578;DHT22;40474;49.330;8.130;2022-08-11T18:31:13;26.70;38.90
54578;DHT22;40474;49.330;8.130;2022-08-11T18:34:03;26.60;37.20
54578;DHT22;40474;49.330;8.130;2022-08-11T18:37:03;26.50;38.20
54578;DHT22;40474;49.330;8.130;2022-08-11T18:39:59;26.40;38.30
54578;DHT22;40474;49.330;8.130;2022-08-11T18:42:46;26.30;37.50
54578;DHT22;40474;49.330;8.130;2022-08-11T18:45:33;26.30;37.80
54578;DHT22;40474;49.330;8.130;2022-08-11T18:48:32;26.20;38.60
54578;DHT22;40474;49.330;8.130;2022-08-11T18:51:20;26.00;37.90
54578;DHT22;40474;49.330;8.130;2022-08-11T18:54:08;26.00;38.10
54578;DHT22;40474;49.330;8.130;2022-08-11T18:56:55;25.90;37.90
54578;DHT22;40474;49.330;8.130;2022-08-11T18:59:41;25.80;39.40
54578;DHT22;40474;49.330;8.130;2022-08-11T19:02:27;25.70;39.50
54578;DHT22;40474;49.330;8.130;2022-08-11T19:05:18;25.70;38.90
54578;DHT22;40474;49.330;8.130;2022-08-11T19:08:27;25.60;38.80
54578;DHT22;40474;49.330;8.130;2022-08-11T19:11:13;25.50;38.60